Time;durP1;ratioP1;P1;durP2;ratioP2;P2;SDS_P1;SDS_P2;PMS_P1;PMS_P2;Temp;Humidity;BMP_temperature;BMP_pressure;BME280_temperature;BME280_humidity;BME280_pressure;Samples;Min_cycle;Max_cycle;Signal;HPM_P1;HPM_P2
2022/11/18 00:00:52;;;;;;;2.13;0.77;;;8.90;99.90;;;;;;4981641;28;20464;-69
2022/11/18 00:03:19;;;;;;;1.10;0.60;;;8.90;99.90;;;;;;4994338;28;20456;-69
2022/11/18 00:05:53;;;;;;;1.90;0.40;;;8.80;99.90;;;;;;4974731;28;20984;-69
2022/11/18 00:08:22;;;;;;;1.17;0.50;;;8.80;99.90;;;;;;4982301;28;20465;-69
2022/11/18 00:10:48;;;;;;;0.90;0.50;;;8.80;99.90;;;;;;4977533;28;20979;-70
2022/11/18 00:16:02;;;;;;;1.20;0.50;;;8.90;99.90;;;;;;4974259;28;20484;-70
2022/11/18 00:18:28;;;;;;;1.00;0.50;;;8.90;99.90;;;;;;4987788;28;20488;-68
2022/11/18 00:20:55;;;;;;;1.00;0.67;;;8.90;99.90;;;;;;4974304;28;20846;-71
2022/11/18 00:23:23;;;;;;;0.90;0.50;;;8.90;99.90;;;;;;4987592;28;20454;-70
2022/11/18 00:25:50;;;;;;;0.90;0.60;;;8.90;99.90;;;;;;4973910;28;20454;-70
2022/11/18 00:28:17;;;;;;;1.60;0.63;;;8.90;99.90;;;;;;4987507;28;20469;-70
2022/11/18 00:30:44;;;;;;;1.17;0.50;;;8.90;99.90;;;;;;4974011;28;20824;-70
2022/11/18 00:33:11;;;;;;;1.37;0.60;;;8.90;99.90;;;;;;4987061;28;20461;-70
2022/11/18 00:35:37;;;;;;;0.70;0.50;;;8.90;99.90;;;;;;4974121;28;20458;-70
2022/11/18 00:38:04;;;;;;;0.70;0.40;;;8.90;99.90;;;;;;4987693;28;20589;-70
2022/11/18 00:40:32;;;;;;;0.70;0.53;;;8.90;99.90;;;;;;4982150;28;20457;-70
2022/11/18 00:42:58;;;;;;;0.90;0.53;;;8.90;99.90;;;;;;4979664;28;20444;-70
2022/11/18 00:45:25;;;;;;;0.70;0.50;;;8.90;99.90;;;;;;4982474;28;20839;-70
2022/11/18 00:47:52;;;;;;;0.83;0.60;;;8.80;99.90;;;;;;4978064;28;20206;-70
2022/11/18 00:50:18;;;;;;;0.70;0.40;;;8.90;99.90;;;;;;4982168;28;20458;-70
2022/11/18 00:52:45;;;;;;;0.80;0.40;;;9.00;99.90;;;;;;4977714;28;20457;-70
2022/11/18 00:55:12;;;;;;;1.17;0.60;;;8.90;99.90;;;;;;4982117;28;20487;-70
2022/11/18 00:57:40;;;;;;;0.93;0.70;;;8.80;99.90;;;;;;4977517;28;20593;-70
2022/11/18 01:00:09;;;;;;;0.80;0.43;;;8.90;99.90;;;;;;4981494;28;20461;-70
2022/11/18 01:02:36;;;;;;;1.23;0.77;;;8.90;99.90;;;;;;4973684;28;20482;-70
2022/11/18 01:05:03;;;;;;;0.70;0.50;;;8.80;99.90;;;;;;4987174;28;20454;-70
2022/11/18 01:07:30;;;;;;;2.03;0.50;;;8.80;99.90;;;;;;4974112;28;20454;-69
2022/11/18 01:09:57;;;;;;;0.70;0.40;;;8.80;99.90;;;;;;4991785;28;20933;-69
2022/11/18 01:15:10;;;;;;;1.53;0.77;;;8.90;99.90;;;;;;4977154;28;20579;-69
2022/11/18 01:17:37;;;;;;;0.80;0.50;;;8.90;99.90;;;;;;4983633;28;20499;-68
2022/11/18 01:20:04;;;;;;;0.70;0.50;;;9.00;99.90;;;;;;4976966;28;20459;-68
2022/11/18 01:22:31;;;;;;;1.63;0.70;;;8.80;99.90;;;;;;4983535;28;20463;-68
2022/11/18 01:24:58;;;;;;;0.80;0.50;;;8.70;99.90;;;;;;4975406;28;20454;-68
2022/11/18 01:27:25;;;;;;;0.70;0.50;;;8.80;99.90;;;;;;4984022;28;20774;-68
2022/11/18 01:29:51;;;;;;;1.00;0.63;;;8.80;99.90;;;;;;4975161;28;20458;-68
2022/11/18 01:32:20;;;;;;;0.90;0.50;;;8.70;99.90;;;;;;4983838;28;20461;-68
2022/11/18 01:34:46;;;;;;;2.30;0.70;;;8.70;99.90;;;;;;4974802;28;20486;-68
2022/11/18 01:37:13;;;;;;;0.70;0.50;;;8.80;99.90;;;;;;4984551;28;20481;-68
2022/11/18 01:39:40;;;;;;;0.80;0.53;;;8.80;99.90;;;;;;4975765;28;21034;-69
2022/11/18 01:42:13;;;;;;;0.77;0.43;;;8.80;99.90;;;;;;4981076;28;20957;-68
2022/11/18 01:45:08;;;;;;;13.50;0.80;;;8.80;99.90;;;;;;4985866;28;20459;-68
2022/11/18 01:47:40;;;;;;;0.97;0.50;;;8.80;99.90;;;;;;4976344;28;20504;-68
2022/11/18 01:50:08;;;;;;;0.70;0.40;;;8.90;99.90;;;;;;4982305;28;20450;-68
2022/11/18 01:52:36;;;;;;;0.70;0.50;;;8.90;99.90;;;;;;4976487;28;20454;-69
2022/11/18 01:55:09;;;;;;;1.57;0.63;;;8.90;99.90;;;;;;4982096;28;20468;-68
2022/11/18 01:57:36;;;;;;;0.90;0.60;;;8.90;99.90;;;;;;4977614;28;20492;-68
2022/11/18 02:00:06;;;;;;;1.20;0.70;;;8.90;99.90;;;;;;4981076;28;20469;-68
2022/11/18 02:02:36;;;;;;;0.80;0.40;;;8.80;99.90;;;;;;4980740;28;20867;-71
2022/11/18 02:05:05;;;;;;;1.30;0.60;;;8.70;99.90;;;;;;4981365;28;20473;-68
2022/11/18 02:07:34;;;;;;;0.70;0.40;;;8.80;99.90;;;;;;4983124;28;20829;-68
2022/11/18 02:10:04;;;;;;;1.10;0.70;;;8.80;99.90;;;;;;4977917;28;20465;-69
2022/11/18 02:12:31;;;;;;;0.90;0.60;;;8.80;99.90;;;;;;4987595;28;20453;-69
2022/11/18 02:14:58;;;;;;;2.10;0.50;;;8.80;99.90;;;;;;4988380;28;20453;-69
2022/11/18 02:17:37;;;;;;;1.53;0.50;;;8.80;99.90;;;;;;4979041;28;20587;-70
2022/11/18 02:20:24;;;;;;;0.80;0.50;;;8.80;99.90;;;;;;4979543;28;20457;-68
2022/11/18 02:23:21;;;;;;;0.70;0.50;;;8.80;99.90;;;;;;4979093;28;20457;-69
2022/11/18 02:26:03;;;;;;;1.00;0.67;;;8.70;99.90;;;;;;4978579;28;20450;-69
2022/11/18 02:28:39;;;;;;;0.90;0.60;;;8.70;99.90;;;;;;4979274;28;20445;-69
2022/11/18 02:31:15;;;;;;;1.97;0.60;;;8.60;99.90;;;;;;4984977;28;20480;-69
2022/11/18 02:33:49;;;;;;;0.80;0.60;;;8.60;99.90;;;;;;4971791;28;20465;-69
2022/11/18 02:36:20;;;;;;;0.80;0.40;;;8.70;99.90;;;;;;4987339;28;20452;-70
2022/11/18 02:38:52;;;;;;;3.70;1.80;;;8.80;99.90;;;;;;4976912;28;20480;-69
2022/11/18 02:41:23;;;;;;;1.93;0.80;;;8.70;99.90;;;;;;4984321;28;20449;-69
2022/11/18 02:43:54;;;;;;;0.70;0.40;;;8.60;99.90;;;;;;4974112;28;20454;-69
2022/11/18 02:46:28;;;;;;;0.97;0.70;;;8.40;99.90;;;;;;4988335;28;20802;-69
2022/11/18 02:48:56;;;;;;;0.90;0.70;;;8.40;99.90;;;;;;4971834;28;20434;-69
2022/11/18 02:51:26;;;;;;;2.60;0.70;;;8.40;99.90;;;;;;4975966;28;20457;-69
2022/11/18 02:53:56;;;;;;;1.50;0.90;;;8.40;99.90;;;;;;4981962;28;20468;-69
2022/11/18 02:56:25;;;;;;;0.80;0.50;;;8.40;99.90;;;;;;4974588;28;20473;-70
2022/11/18 02:58:52;;;;;;;1.93;0.60;;;8.40;99.90;;;;;;4985969;28;20488;-68
2022/11/18 03:01:24;;;;;;;0.80;0.50;;;8.50;99.90;;;;;;4977336;28;20485;-68
2022/11/18 03:03:51;;;;;;;0.90;0.60;;;8.50;99.90;;;;;;4984231;28;20468;-68
2022/11/18 03:06:28;;;;;;;1.47;0.60;;;8.40;99.90;;;;;;4984350;28;20456;-69
2022/11/18 03:09:03;;;;;;;2.40;1.30;;;8.30;99.90;;;;;;4976753;28;21056;-67
2022/11/18 03:11:33;;;;;;;5.30;3.60;;;8.30;99.90;;;;;;4975294;28;20976;-67
2022/11/18 03:14:14;;;;;;;1.10;0.97;;;8.40;99.90;;;;;;4971703;28;20940;-67
2022/11/18 03:16:49;;;;;;;0.90;0.80;;;8.30;99.90;;;;;;4986106;28;20502;-68
2022/11/18 03:19:22;;;;;;;0.70;0.50;;;8.40;99.90;;;;;;4977091;28;20485;-68
2022/11/18 03:21:59;;;;;;;1.67;0.60;;;8.40;99.90;;;;;;4980908;28;20453;-68
2022/11/18 03:24:30;;;;;;;0.97;0.40;;;8.30;99.90;;;;;;4978236;28;20460;-68
2022/11/18 03:27:06;;;;;;;0.80;0.50;;;8.30;99.90;;;;;;4980430;28;20480;-68
2022/11/18 03:29:36;;;;;;;1.43;0.60;;;8.30;99.90;;;;;;4978714;28;20455;-72
2022/11/18 03:32:10;;;;;;;0.70;0.40;;;8.30;99.90;;;;;;4978974;28;20459;-68
2022/11/18 03:34:41;;;;;;;0.70;0.50;;;8.40;99.90;;;;;;4974544;28;20968;-67
2022/11/18 03:37:12;;;;;;;2.70;1.17;;;8.50;99.90;;;;;;4984718;28;20925;-69
2022/11/18 03:39:42;;;;;;;0.80;0.43;;;8.50;99.90;;;;;;4988493;28;20442;-72
2022/11/18 03:42:15;;;;;;;0.80;0.40;;;8.60;99.90;;;;;;4983537;28;20453;-69
2022/11/18 03:44:47;;;;;;;0.80;0.60;;;8.40;99.90;;;;;;4987918;28;20816;-68
2022/11/18 03:47:20;;;;;;;2.03;1.30;;;8.50;99.90;;;;;;4986361;28;20452;-68
2022/11/18 03:49:57;;;;;;;1.77;1.17;;;8.50;99.90;;;;;;4988882;28;21005;-68
2022/11/18 03:52:28;;;;;;;1.53;1.13;;;8.50;99.90;;;;;;4983325;28;20455;-68
2022/11/18 03:54:58;;;;;;;1.00;0.60;;;8.50;99.90;;;;;;4984857;28;20461;-70
2022/11/18 03:57:34;;;;;;;1.00;0.60;;;8.60;99.90;;;;;;4981333;28;21007;-69
2022/11/18 04:00:06;;;;;;;0.90;0.40;;;8.60;99.90;;;;;;4986639;28;20973;-67
2022/11/18 04:02:35;;;;;;;1.30;0.60;;;8.60;99.90;;;;;;4987500;28;20500;-68
2022/11/18 04:05:05;;;;;;;0.70;0.40;;;8.50;99.90;;;;;;4987460;28;20548;-67
2022/11/18 04:07:34;;;;;;;0.70;0.40;;;8.70;99.90;;;;;;4985214;28;20465;-67
2022/11/18 04:10:08;;;;;;;0.93;0.80;;;8.80;99.90;;;;;;4980244;28;20461;-68
2022/11/18 04:12:41;;;;;;;1.50;1.10;;;8.90;99.90;;;;;;4973858;28;20468;-68
2022/11/18 04:15:09;;;;;;;0.97;0.43;;;;;;;;;;4982963;28;20867;-71
2022/11/18 04:17:38;;;;;;;1.10;0.50;;;;;;;;;;4986635;28;20468;-68
2022/11/18 04:20:05;;;;;;;0.73;0.50;;;8.90;99.90;;;;;;4980859;28;20994;-68
2022/11/18 04:22:32;;;;;;;1.50;0.90;;;8.90;99.90;;;;;;4975313;28;20450;-68
2022/11/18 04:24:59;;;;;;;0.70;0.50;;;9.00;99.90;;;;;;4982781;28;20460;-68
2022/11/18 04:27:26;;;;;;;0.80;0.50;;;8.90;99.90;;;;;;4982992;28;20472;-68
2022/11/18 04:29:52;;;;;;;1.00;0.50;;;8.90;99.90;;;;;;4984998;28;20484;-67
2022/11/18 04:32:19;;;;;;;1.10;0.70;;;;;;;;;;4976352;28;20568;-68
2022/11/18 04:34:48;;;;;;;6.20;0.73;;;;;;;;;;4984144;28;20993;-68
2022/11/18 04:37:15;;;;;;;0.80;0.40;;;;;;;;;;4984514;28;20478;-67
2022/11/18 04:39:42;;;;;;;2.00;0.90;;;;;;;;;;4982773;28;21004;-67
2022/11/18 04:42:09;;;;;;;0.70;0.40;;;9.00;99.90;;;;;;4980777;28;20467;-67
2022/11/18 04:44:36;;;;;;;1.80;0.50;;;8.70;99.90;;;;;;4989593;28;20537;-67
2022/11/18 04:47:04;;;;;;;1.33;0.87;;;8.60;99.90;;;;;;4981455;28;20462;-68
2022/11/18 04:49:32;;;;;;;0.70;0.40;;;8.60;99.90;;;;;;4978331;28;20476;-68
2022/11/18 04:52:01;;;;;;;1.37;0.43;;;8.70;99.90;;;;;;4984790;28;20615;-68
2022/11/18 04:54:28;;;;;;;3.57;1.77;;;8.70;99.90;;;;;;4983605;28;20472;-68
2022/11/18 04:56:55;;;;;;;1.30;0.73;;;8.60;99.90;;;;;;4984451;28;20793;-69
2022/11/18 04:59:24;;;;;;;1.13;0.60;;;8.60;99.90;;;;;;4988505;28;20490;-67
2022/11/18 05:01:52;;;;;;;0.80;0.50;;;8.60;99.90;;;;;;4987116;28;20485;-68
2022/11/18 05:04:20;;;;;;;1.00;0.70;;;8.60;99.90;;;;;;4990083;28;20463;-69
2022/11/18 05:06:48;;;;;;;0.87;0.60;;;8.60;99.90;;;;;;4987114;28;20468;-68
2022/11/18 05:09:16;;;;;;;0.70;0.40;;;8.60;99.90;;;;;;4985581;28;20462;-67
2022/11/18 05:14:29;;;;;;;1.63;0.60;;;8.30;99.90;;;;;;4973345;28;20432;-67
2022/11/18 05:16:58;;;;;;;0.70;0.47;;;8.40;99.90;;;;;;4984109;28;20457;-68
2022/11/18 05:19:25;;;;;;;0.70;0.40;;;8.20;99.90;;;;;;4969239;28;21231;-68
2022/11/18 05:21:52;;;;;;;0.90;0.70;;;8.10;99.90;;;;;;4976854;28;20453;-68
2022/11/18 05:24:22;;;;;;;0.70;0.50;;;8.10;99.90;;;;;;4990875;28;20465;-68
2022/11/18 05:26:49;;;;;;;1.53;0.40;;;8.20;99.90;;;;;;4983134;28;20473;-69
2022/11/18 05:29:17;;;;;;;1.10;0.40;;;8.20;99.90;;;;;;4983281;28;20495;-68
2022/11/18 05:31:45;;;;;;;0.77;0.47;;;8.10;99.90;;;;;;4989212;28;20473;-68
2022/11/18 05:34:12;;;;;;;1.10;0.60;;;8.00;99.90;;;;;;4986272;28;20472;-68
2022/11/18 05:36:39;;;;;;;1.13;0.40;;;8.10;99.90;;;;;;4977564;28;20460;-69
2022/11/18 05:39:06;;;;;;;0.70;0.40;;;8.20;99.90;;;;;;4984622;28;20940;-69
2022/11/18 05:44:18;;;;;;;1.50;0.80;;;8.10;99.90;;;;;;4983368;28;20432;-69
2022/11/18 05:46:46;;;;;;;0.70;0.50;;;8.20;99.90;;;;;;4979049;28;20482;-70
2022/11/18 05:49:12;;;;;;;1.13;0.50;;;8.20;99.90;;;;;;4984338;28;20463;-70
2022/11/18 05:51:39;;;;;;;1.20;0.60;;;8.20;99.90;;;;;;4982449;28;20475;-69
2022/11/18 05:54:09;;;;;;;0.70;0.40;;;8.10;99.90;;;;;;4980284;28;20464;-69
2022/11/18 05:56:39;;;;;;;0.90;0.50;;;8.10;99.90;;;;;;4988002;28;20455;-71
2022/11/18 05:59:07;;;;;;;0.80;0.40;;;8.10;99.90;;;;;;4980381;28;20492;-68
2022/11/18 06:01:38;;;;;;;1.00;0.40;;;8.20;99.90;;;;;;4988045;28;20860;-70
2022/11/18 06:04:08;;;;;;;0.70;0.40;;;8.20;99.90;;;;;;4989450;28;20464;-72
2022/11/18 06:06:36;;;;;;;0.87;0.70;;;8.20;99.90;;;;;;4987838;28;20459;-69
2022/11/18 06:09:05;;;;;;;5.23;2.13;;;8.20;99.90;;;;;;4983876;28;20468;-69
2022/11/18 06:11:35;;;;;;;1.13;0.80;;;8.10;99.90;;;;;;4986791;28;20457;-68
2022/11/18 06:14:10;;;;;;;0.70;0.40;;;8.00;99.90;;;;;;4986209;28;20447;-68
2022/11/18 06:16:38;;;;;;;2.80;0.70;;;;;;;;;;4988869;28;20448;-67
2022/11/18 06:19:05;;;;;;;0.83;0.50;;;8.20;99.90;;;;;;4983485;28;20485;-67
2022/11/18 06:21:33;;;;;;;0.87;0.60;;;8.10;99.90;;;;;;4980602;28;20952;-67
2022/11/18 06:24:01;;;;;;;1.53;0.60;;;8.10;99.90;;;;;;4987081;28;21030;-70
2022/11/18 06:26:28;;;;;;;0.70;0.50;;;8.20;99.90;;;;;;4989853;28;20852;-76
2022/11/18 06:28:56;;;;;;;0.77;0.50;;;8.10;99.90;;;;;;4989680;28;20452;-72
2022/11/18 06:31:24;;;;;;;0.90;0.50;;;8.10;99.90;;;;;;4990328;28;20466;-68
2022/11/18 06:33:51;;;;;;;1.03;0.57;;;8.00;99.90;;;;;;4983520;28;20509;-68
2022/11/18 06:36:18;;;;;;;1.00;0.60;;;8.00;99.90;;;;;;4978623;28;20468;-68
2022/11/18 06:38:44;;;;;;;1.80;0.67;;;8.00;99.90;;;;;;4991287;28;21003;-68
2022/11/18 06:41:11;;;;;;;1.00;0.70;;;8.00;99.90;;;;;;4983229;28;20456;-68
2022/11/18 06:43:40;;;;;;;1.13;0.73;;;8.10;99.90;;;;;;4986586;28;20460;-68
2022/11/18 06:48:54;;;;;;;2.27;1.27;;;8.10;99.90;;;;;;4991389;28;20923;-69
2022/11/18 06:51:21;;;;;;;0.90;0.60;;;8.10;99.90;;;;;;4988082;28;20460;-68
2022/11/18 06:53:48;;;;;;;1.47;0.50;;;8.10;99.90;;;;;;4989410;28;20457;-68
2022/11/18 06:56:17;;;;;;;0.80;0.60;;;8.10;99.90;;;;;;4987540;28;20469;-68
2022/11/18 06:58:44;;;;;;;1.00;0.60;;;8.10;99.90;;;;;;4974200;28;20481;-68
2022/11/18 07:01:12;;;;;;;1.27;0.80;;;8.10;99.90;;;;;;4989454;28;20483;-68
2022/11/18 07:03:39;;;;;;;1.23;0.90;;;8.20;99.90;;;;;;4977407;28;20454;-68
2022/11/18 07:06:08;;;;;;;4.00;0.80;;;8.30;99.90;;;;;;4990612;28;20449;-68
2022/11/18 07:08:36;;;;;;;1.03;0.57;;;8.10;99.90;;;;;;4985321;28;20556;-68
2022/11/18 07:11:04;;;;;;;3.10;0.80;;;8.10;99.90;;;;;;4985551;28;20452;-69
2022/11/18 07:13:31;;;;;;;0.80;0.50;;;8.10;99.90;;;;;;4982451;28;20928;-69
2022/11/18 07:16:03;;;;;;;2.70;0.80;;;8.20;99.90;;;;;;4982340;28;20455;-69
2022/11/18 07:18:30;;;;;;;0.90;0.70;;;8.40;99.90;;;;;;4990512;28;20524;-69
2022/11/18 07:20:57;;;;;;;1.30;1.10;;;8.50;99.90;;;;;;4982480;28;20906;-69
2022/11/18 07:23:25;;;;;;;2.00;0.87;;;8.40;99.90;;;;;;4987843;28;20898;-69
2022/11/18 07:25:54;;;;;;;3.40;0.50;;;8.40;99.90;;;;;;4989798;28;20456;-70
2022/11/18 07:28:21;;;;;;;0.70;0.40;;;8.30;99.90;;;;;;4985455;28;20460;-69
2022/11/18 07:30:48;;;;;;;0.90;0.50;;;8.30;99.90;;;;;;4978031;28;20476;-69
2022/11/18 07:33:15;;;;;;;0.70;0.47;;;8.50;99.90;;;;;;4975382;28;20458;-69
2022/11/18 07:35:42;;;;;;;3.07;0.60;;;8.60;99.90;;;;;;4982969;28;20455;-70
2022/11/18 07:38:09;;;;;;;0.90;0.50;;;8.80;99.90;;;;;;4985695;28;20454;-70
2022/11/18 07:40:37;;;;;;;0.97;0.60;;;8.80;99.90;;;;;;4987477;28;21115;-70
2022/11/18 07:43:06;;;;;;;1.00;0.80;;;8.80;99.90;;;;;;4979370;28;20464;-68
2022/11/18 07:45:32;;;;;;;1.10;0.60;;;8.80;99.90;;;;;;4990857;28;20465;-68
2022/11/18 07:47:59;;;;;;;0.90;0.70;;;8.70;99.90;;;;;;4984394;28;20449;-68
2022/11/18 07:50:26;;;;;;;1.43;0.87;;;8.70;99.90;;;;;;4984216;28;20460;-69
2022/11/18 07:52:55;;;;;;;1.10;0.70;;;8.60;99.90;;;;;;4977642;28;20459;-68
2022/11/18 07:55:22;;;;;;;1.10;0.77;;;8.70;99.90;;;;;;4989860;28;20476;-68
2022/11/18 07:57:50;;;;;;;0.80;0.50;;;8.50;99.90;;;;;;4983235;28;20456;-68
2022/11/18 08:00:18;;;;;;;2.13;0.67;;;8.50;99.90;;;;;;4972001;28;20497;-69
2022/11/18 08:02:45;;;;;;;1.83;0.90;;;8.50;99.90;;;;;;4987067;28;20495;-68
2022/11/18 08:05:12;;;;;;;1.33;0.50;;;8.50;99.90;;;;;;4989783;28;20464;-68
2022/11/18 08:07:39;;;;;;;3.37;2.60;;;8.40;99.90;;;;;;4983341;28;20460;-68
2022/11/18 08:10:06;;;;;;;0.80;0.50;;;8.50;99.90;;;;;;4987380;28;20531;-68
2022/11/18 08:12:33;;;;;;;1.20;0.50;;;8.50;99.90;;;;;;4990973;28;20456;-68
2022/11/18 08:15:01;;;;;;;1.53;0.60;;;8.50;99.90;;;;;;4988743;28;20451;-70
2022/11/18 08:17:28;;;;;;;4.83;0.50;;;8.60;99.90;;;;;;4989834;28;20826;-68
2022/11/18 08:19:55;;;;;;;0.80;0.50;;;8.60;99.90;;;;;;4988339;28;20491;-68
2022/11/18 08:22:22;;;;;;;1.03;0.60;;;8.50;99.90;;;;;;4985739;28;20829;-69
2022/11/18 08:24:48;;;;;;;3.23;0.80;;;8.50;99.90;;;;;;4987377;28;20457;-68
2022/11/18 08:27:15;;;;;;;0.70;0.40;;;8.70;99.90;;;;;;4980678;28;20955;-68
2022/11/18 08:29:42;;;;;;;1.33;0.50;;;8.70;99.90;;;;;;4983340;28;20458;-68
2022/11/18 08:32:10;;;;;;;1.23;0.70;;;8.80;99.90;;;;;;4982634;28;20464;-70
2022/11/18 08:34:37;;;;;;;0.80;0.50;;;8.70;99.90;;;;;;4978675;28;20552;-69
2022/11/18 08:37:04;;;;;;;0.80;0.60;;;8.80;99.90;;;;;;4976947;28;20454;-69
2022/11/18 08:39:31;;;;;;;1.93;1.10;;;9.00;99.90;;;;;;4982146;28;20512;-69
2022/11/18 08:41:58;;;;;;;1.30;0.80;;;9.00;99.90;;;;;;4973781;28;20706;-69
2022/11/18 08:44:25;;;;;;;1.07;0.77;;;9.00;99.90;;;;;;4989868;28;20556;-69
2022/11/18 08:46:52;;;;;;;0.80;0.50;;;9.00;99.90;;;;;;4991960;28;20454;-69
2022/11/18 08:49:20;;;;;;;0.77;0.50;;;9.00;99.90;;;;;;4991743;28;20481;-69
2022/11/18 08:51:47;;;;;;;0.93;0.60;;;8.80;99.90;;;;;;4987483;28;20464;-69
2022/11/18 08:54:13;;;;;;;0.90;0.70;;;8.80;99.90;;;;;;4992891;28;20941;-69
2022/11/18 08:56:40;;;;;;;0.70;0.53;;;8.80;99.90;;;;;;4992472;28;20456;-69
2022/11/18 08:59:08;;;;;;;1.33;0.60;;;8.80;99.90;;;;;;4991652;28;20476;-69
2022/11/18 09:01:36;;;;;;;0.67;0.40;;;8.70;99.90;;;;;;4993011;28;20952;-69
2022/11/18 09:04:03;;;;;;;0.80;0.60;;;8.70;99.90;;;;;;4980799;28;20500;-69
2022/11/18 09:06:33;;;;;;;2.33;1.00;;;8.70;99.90;;;;;;4991759;28;20456;-69
2022/11/18 09:09:00;;;;;;;0.70;0.50;;;8.70;99.90;;;;;;4982865;28;20449;-68
2022/11/18 09:11:27;;;;;;;0.70;0.50;;;8.70;99.90;;;;;;4980164;28;20464;-68
2022/11/18 09:13:55;;;;;;;1.10;0.53;;;8.80;99.90;;;;;;4989382;28;20452;-68
2022/11/18 09:16:22;;;;;;;1.13;0.97;;;8.70;99.90;;;;;;4987435;28;20540;-68
2022/11/18 09:18:49;;;;;;;0.80;0.57;;;8.80;99.90;;;;;;4979599;28;20539;-67
2022/11/18 09:21:17;;;;;;;0.73;0.50;;;8.80;99.90;;;;;;4985458;28;20949;-69
2022/11/18 09:23:45;;;;;;;1.00;0.60;;;8.80;99.90;;;;;;4985286;28;20457;-69
2022/11/18 09:26:15;;;;;;;1.30;0.67;;;8.80;99.90;;;;;;4983038;28;20978;-69
2022/11/18 09:28:42;;;;;;;0.70;0.50;;;8.90;99.90;;;;;;4974432;28;20450;-69
2022/11/18 09:31:10;;;;;;;1.23;0.73;;;8.80;99.90;;;;;;4987521;28;20461;-67
2022/11/18 09:33:38;;;;;;;1.57;0.50;;;8.80;99.90;;;;;;4993220;28;20452;-68
2022/11/18 09:36:11;;;;;;;2.30;0.90;;;8.90;99.90;;;;;;4978199;28;20690;-69
2022/11/18 09:38:38;;;;;;;1.87;1.23;;;8.80;99.90;;;;;;4984238;28;20449;-69
2022/11/18 09:41:16;;;;;;;1.57;0.80;;;8.90;99.90;;;;;;4987565;28;20490;-69
2022/11/18 09:43:55;;;;;;;1.37;0.77;;;9.00;99.90;;;;;;4992355;28;20445;-69
2022/11/18 09:46:29;;;;;;;2.90;0.80;;;8.90;99.90;;;;;;4991457;28;20446;-69
2022/11/18 09:49:12;;;;;;;2.37;0.60;;;9.00;99.90;;;;;;4984485;28;20467;-68
2022/11/18 09:51:41;;;;;;;0.73;0.50;;;9.20;99.90;;;;;;4980699;28;20449;-69
2022/11/18 09:54:12;;;;;;;1.10;0.60;;;9.30;99.90;;;;;;4990852;28;20473;-67
2022/11/18 09:56:41;;;;;;;1.27;0.87;;;9.40;99.90;;;;;;4989851;28;20511;-70
2022/11/18 09:59:12;;;;;;;1.97;1.10;;;9.40;99.90;;;;;;4983672;28;20455;-69
2022/11/18 10:01:39;;;;;;;1.00;0.63;;;9.40;99.90;;;;;;4989241;28;20491;-69
2022/11/18 10:04:12;;;;;;;0.80;0.40;;;9.50;99.90;;;;;;4979619;28;20455;-68
2022/11/18 10:06:38;;;;;;;1.00;0.70;;;9.50;99.90;;;;;;4984635;28;20446;-67
2022/11/18 10:09:17;;;;;;;3.90;0.80;;;9.60;99.90;;;;;;4979372;28;20570;-68
2022/11/18 10:11:58;;;;;;;1.70;0.80;;;9.80;99.90;;;;;;4980026;28;20470;-68
2022/11/18 10:14:36;;;;;;;0.90;0.60;;;9.70;99.90;;;;;;4982398;28;20466;-69
2022/11/18 10:17:16;;;;;;;0.97;0.57;;;9.60;99.90;;;;;;4980253;28;20449;-69
2022/11/18 10:19:51;;;;;;;1.97;1.20;;;9.60;99.90;;;;;;4986223;28;20474;-67
2022/11/18 10:22:26;;;;;;;0.83;0.50;;;9.50;99.90;;;;;;4990976;28;20482;-67
2022/11/18 10:24:55;;;;;;;1.33;0.73;;;9.60;99.90;;;;;;4990295;28;20454;-67
2022/11/18 10:27:26;;;;;;;1.20;0.70;;;9.60;99.90;;;;;;4989214;28;20447;-67
2022/11/18 10:29:55;;;;;;;1.80;0.93;;;9.80;99.90;;;;;;4989640;28;20462;-67
2022/11/18 10:32:22;;;;;;;1.27;0.67;;;9.80;99.90;;;;;;4983361;28;20949;-69
2022/11/18 10:34:51;;;;;;;2.10;0.90;;;9.80;99.90;;;;;;4984768;28;20456;-69
2022/11/18 10:37:26;;;;;;;1.00;0.63;;;10.00;99.90;;;;;;4980067;28;20486;-69
2022/11/18 10:39:55;;;;;;;1.23;0.80;;;10.10;99.90;;;;;;4977899;28;20851;-68
2022/11/18 10:42:28;;;;;;;1.30;0.90;;;10.10;99.90;;;;;;4986089;28;20496;-68
2022/11/18 10:44:55;;;;;;;4.07;0.60;;;10.10;99.90;;;;;;4988731;28;20476;-68
2022/11/18 10:47:26;;;;;;;1.33;0.80;;;10.30;99.90;;;;;;4991035;28;20466;-69
2022/11/18 10:49:54;;;;;;;2.00;1.07;;;10.50;99.90;;;;;;4981979;28;20448;-68
2022/11/18 10:52:22;;;;;;;1.50;0.70;;;10.50;99.90;;;;;;4983140;28;20806;-69
2022/11/18 10:55:19;;;;;;;2.80;1.07;;;10.50;99.90;;;;;;4981468;28;20460;-69
2022/11/18 10:57:51;;;;;;;1.00;0.70;;;10.30;99.90;;;;;;4981180;28;20506;-68
2022/11/18 11:00:43;;;;;;;2.00;1.00;;;10.20;99.90;;;;;;4990459;28;20969;-69
2022/11/18 11:03:34;;;;;;;1.37;0.70;;;10.10;99.90;;;;;;4970911;28;20451;-68
2022/11/18 11:06:28;;;;;;;1.00;0.73;;;10.20;99.90;;;;;;4960145;28;20521;-69
2022/11/18 11:08:57;;;;;;;1.60;0.90;;;10.30;99.90;;;;;;4969112;28;20510;-68
2022/11/18 11:11:27;;;;;;;1.00;0.80;;;10.40;99.90;;;;;;4963837;28;20805;-69
2022/11/18 11:14:04;;;;;;;1.63;1.07;;;10.60;99.90;;;;;;4957670;28;20448;-69
2022/11/18 11:16:32;;;;;;;2.40;0.80;;;10.60;99.90;;;;;;4963141;28;20442;-68
2022/11/18 11:19:03;;;;;;;0.97;0.70;;;10.60;99.90;;;;;;4964108;28;20462;-68
2022/11/18 11:21:30;;;;;;;2.40;1.00;;;10.50;99.90;;;;;;4969131;28;20474;-68
2022/11/18 11:23:58;;;;;;;1.03;0.67;;;10.40;99.90;;;;;;4959400;28;20456;-68
2022/11/18 11:26:34;;;;;;;1.33;0.80;;;10.30;99.90;;;;;;4958845;28;20813;-67
2022/11/18 11:29:13;;;;;;;0.80;0.60;;;10.20;99.90;;;;;;4960303;28;20514;-67
2022/11/18 11:31:48;;;;;;;1.97;0.50;;;10.00;99.90;;;;;;4964723;28;20465;-68
2022/11/18 11:34:23;;;;;;;0.87;0.70;;;10.10;99.90;;;;;;4965755;28;20442;-68
2022/11/18 11:36:55;;;;;;;1.00;0.70;;;10.20;99.90;;;;;;4959623;28;20452;-70
2022/11/18 11:39:40;;;;;;;2.57;1.33;;;10.20;99.90;;;;;;4969020;28;20466;-68
2022/11/18 11:42:17;;;;;;;2.17;0.90;;;10.20;99.90;;;;;;4954882;28;20503;-69
2022/11/18 11:44:58;;;;;;;1.00;0.53;;;10.20;99.90;;;;;;4954709;28;20969;-68
2022/11/18 11:47:46;;;;;;;0.93;0.50;;;10.20;99.90;;;;;;4968507;28;20451;-70
2022/11/18 11:50:18;;;;;;;2.97;0.93;;;10.20;99.90;;;;;;4965109;28;20458;-67
2022/11/18 11:52:59;;;;;;;1.70;1.03;;;10.30;99.90;;;;;;4969571;28;20807;-70
2022/11/18 11:55:30;;;;;;;0.70;0.40;;;10.30;99.90;;;;;;4970092;28;20810;-70
2022/11/18 11:58:07;;;;;;;1.13;0.63;;;10.30;99.90;;;;;;4962831;28;21199;-73
2022/11/18 12:00:41;;;;;;;1.70;0.80;;;10.30;99.90;;;;;;4972580;28;20496;-69
2022/11/18 12:03:26;;;;;;;1.10;0.63;;;10.40;99.90;;;;;;4967292;28;20802;-69
2022/11/18 12:05:53;;;;;;;2.37;1.07;;;10.40;99.90;;;;;;4964326;28;20452;-69
2022/11/18 12:08:21;;;;;;;0.90;0.67;;;;;;;;;;4969934;28;20455;-69
2022/11/18 12:10:52;;;;;;;2.50;0.83;;;;;;;;;;4973517;28;20464;-69
2022/11/18 12:13:24;;;;;;;1.10;0.70;;;;;;;;;;4966825;28;20531;-69
2022/11/18 12:16:05;;;;;;;1.60;0.77;;;;;;;;;;4965811;28;20482;-69
2022/11/18 12:18:36;;;;;;;1.33;0.70;;;;;;;;;;4970970;28;20442;-70
2022/11/18 12:21:03;;;;;;;2.03;0.60;;;;;;;;;;4965398;28;20481;-69
2022/11/18 12:23:31;;;;;;;0.70;0.47;;;;;;;;;;4972360;28;20450;-69
2022/11/18 12:26:00;;;;;;;1.33;0.70;;;;;;;;;;4973388;28;20462;-69
2022/11/18 12:28:29;;;;;;;0.90;0.47;;;;;;;;;;4968470;28;20472;-69
2022/11/18 12:31:15;;;;;;;2.63;0.80;;;;;;;;;;4965666;28;20472;-68
2022/11/18 12:33:44;;;;;;;1.20;0.60;;;;;;;;;;4954568;28;20451;-68
2022/11/18 12:36:25;;;;;;;1.43;0.50;;;;;;;;;;4956717;28;20473;-68
2022/11/18 12:38:52;;;;;;;0.87;0.53;;;;;;;;;;4968418;28;20517;-68
2022/11/18 12:44:38;;;;;;;0.80;0.53;;;;;;;;;;4960006;28;20469;-68
2022/11/18 12:47:05;;;;;;;0.90;0.60;;;;;;;;;;4968080;28;20510;-68
2022/11/18 12:49:51;;;;;;;1.10;0.80;;;;;;;;;;4961221;28;20804;-69
2022/11/18 12:52:37;;;;;;;0.97;0.77;;;;;;;;;;4969875;28;20469;-69
2022/11/18 12:55:13;;;;;;;1.10;0.83;;;;;;;;;;4970749;28;20447;-69
2022/11/18 12:57:41;;;;;;;1.00;0.80;;;;;;;;;;4960529;28;20442;-69
2022/11/18 13:00:28;;;;;;;0.90;0.60;;;10.20;99.90;;;;;;4973334;28;20504;-68
2022/11/18 13:02:56;;;;;;;0.90;0.77;;;10.00;99.90;;;;;;4985366;28;20474;-69
2022/11/18 13:05:24;;;;;;;1.93;0.60;;;10.00;99.90;;;;;;4989938;28;20443;-69
2022/11/18 13:08:13;;;;;;;1.63;0.90;;;10.20;99.90;;;;;;4990381;28;20457;-68
2022/11/18 13:10:48;;;;;;;1.70;0.80;;;10.20;99.90;;;;;;4985494;28;20505;-69
2022/11/18 13:13:28;;;;;;;0.97;0.70;;;10.40;99.90;;;;;;4982675;28;20446;-74
2022/11/18 13:18:50;;;;;;;1.10;0.80;;;10.40;99.90;;;;;;4978801;28;20428;-69
2022/11/18 13:24:07;;;;;;;2.50;0.90;;;10.60;71.70;;;;;;4990583;28;20443;-68
2022/11/18 13:26:35;;;;;;;7.50;1.17;;;10.60;49.50;;;;;;4992147;28;20455;-69
2022/11/18 13:29:34;;;;;;;1.00;0.40;;;10.50;25.50;;;;;;4987790;28;20459;-69
2022/11/18 13:32:15;;;;;;;2.97;0.77;;;10.50;1.00;;;;;;4986635;28;20463;-69
2022/11/18 13:34:46;;;;;;;3.43;0.90;;;10.40;1.00;;;;;;4975723;28;20447;-69
2022/11/18 13:37:17;;;;;;;3.30;0.67;;;10.40;51.00;;;;;;4982167;28;20452;-69
2022/11/18 13:39:47;;;;;;;1.27;0.80;;;10.40;21.50;;;;;;4986902;28;20456;-68
2022/11/18 13:42:18;;;;;;;4.30;0.90;;;10.80;1.00;;;;;;4992536;28;20875;-69